createdAt,value
2018-06-22T00:02:01.575Z,11.07
2018-06-22T00:04:29.915Z,11.50
2018-06-22T00:06:58.256Z,11.17
2018-06-22T00:09:26.615Z,11.80
2018-06-22T00:11:55.218Z,12.73
2018-06-22T00:14:23.525Z,13.00
2018-06-22T00:16:51.856Z,12.43
2018-06-22T00:19:20.286Z,10.00
2018-06-22T00:21:48.639Z,12.87
2018-06-22T00:24:16.695Z,11.13
2018-06-22T00:26:45.007Z,13.03
2018-06-22T00:29:13.340Z,19.63
2018-06-22T00:31:41.648Z,14.10
2018-06-22T00:34:10.111Z,11.43
2018-06-22T00:36:38.436Z,11.37
2018-06-22T00:39:08.439Z,17.23
2018-06-22T00:41:38.299Z,14.17
2018-06-22T00:44:06.613Z,14.13
2018-06-22T00:46:34.928Z,11.37
2018-06-22T00:49:03.266Z,11.80
2018-06-22T00:51:31.601Z,16.17
2018-06-22T00:54:11.467Z,15.60
2018-06-22T00:56:39.800Z,18.13
2018-06-22T00:59:08.158Z,17.60
2018-06-22T01:01:36.455Z,14.10
2018-06-22T01:04:04.792Z,19.50
2018-06-22T01:06:33.079Z,15.17
2018-06-22T01:09:01.423Z,14.20
2018-06-22T01:11:29.739Z,14.17
2018-06-22T01:13:58.046Z,16.50
2018-06-22T01:16:26.521Z,16.23
2018-06-22T01:18:55.435Z,13.23
2018-06-22T01:21:23.799Z,18.13
2018-06-22T01:23:52.142Z,17.30
2018-06-22T01:26:20.426Z,19.20
2018-06-22T01:28:48.947Z,15.53
2018-06-22T01:31:17.573Z,11.30
2018-06-22T01:33:45.640Z,13.87
2018-06-22T01:36:13.727Z,16.47
2018-06-22T01:38:42.031Z,15.37
2018-06-22T01:41:10.340Z,13.60
2018-06-22T01:43:38.652Z,15.03
2018-06-22T01:46:07.017Z,18.47
2018-06-22T01:48:35.366Z,15.13
2018-06-22T01:51:03.693Z,15.40
2018-06-22T01:53:31.997Z,18.37
2018-06-22T01:56:00.324Z,14.83
2018-06-22T01:58:28.718Z,19.47
2018-06-22T02:00:57.045Z,16.10
2018-06-22T02:03:25.383Z,11.60
2018-06-22T02:05:53.836Z,12.47
2018-06-22T02:08:22.178Z,14.83
2018-06-22T02:10:50.587Z,15.70
2018-06-22T02:13:18.924Z,15.10
2018-06-22T02:15:47.313Z,19.57
2018-06-22T02:18:15.602Z,11.57
2018-06-22T02:20:43.925Z,15.97
2018-06-22T02:23:12.231Z,19.97
2018-06-22T02:25:40.590Z,13.07
2018-06-22T02:28:08.884Z,15.83
2018-06-22T02:30:37.234Z,13.00
2018-06-22T02:33:05.797Z,16.80
2018-06-22T02:35:34.118Z,11.17
2018-06-22T02:38:02.464Z,9.80
2018-06-22T02:40:30.835Z,13.17
2018-06-22T02:42:59.130Z,10.27
2018-06-22T02:45:27.451Z,10.60
2018-06-22T02:47:55.780Z,15.97
2018-06-22T02:50:24.082Z,12.33
2018-06-22T02:52:52.418Z,11.97
2018-06-22T02:55:20.786Z,11.93
2018-06-22T02:57:49.134Z,7.70
2018-06-22T03:00:17.431Z,12.47
2018-06-22T03:02:45.779Z,15.77
2018-06-22T03:05:14.096Z,13.20
2018-06-22T03:07:42.438Z,10.20
2018-06-22T03:10:10.848Z,9.37
2018-06-22T03:12:39.191Z,10.40
2018-06-22T03:15:07.533Z,11.37
2018-06-22T03:17:35.858Z,16.23
2018-06-22T03:20:04.857Z,17.03
2018-06-22T03:22:33.152Z,12.20
2018-06-22T03:25:01.488Z,14.80
2018-06-22T03:27:29.766Z,17.33
2018-06-22T03:29:58.104Z,17.80
2018-06-22T03:32:26.399Z,13.47
2018-06-22T03:34:54.691Z,14.73
2018-06-22T03:37:23.003Z,22.13
2018-06-22T03:39:51.317Z,17.70
2018-06-22T03:42:19.628Z,19.43
2018-06-22T03:44:47.957Z,8.43
2018-06-22T03:47:16.238Z,20.10
2018-06-22T03:49:44.558Z,18.63
2018-06-22T03:52:12.903Z,15.53
2018-06-22T03:54:41.260Z,20.50
2018-06-22T03:57:09.742Z,14.40
2018-06-22T03:59:38.063Z,20.17
2018-06-22T04:02:06.371Z,19.50
2018-06-22T04:04:34.709Z,20.50
2018-06-22T04:07:03.041Z,22.80
2018-06-22T04:09:31.367Z,19.93
2018-06-22T04:11:59.656Z,18.77
2018-06-22T04:14:28.017Z,19.43
2018-06-22T04:16:56.322Z,19.37
2018-06-22T04:19:24.432Z,17.40
2018-06-22T04:21:52.750Z,19.40
2018-06-22T04:24:21.125Z,23.30
2018-06-22T04:26:49.484Z,25.37
2018-06-22T04:29:19.054Z,24.20
2018-06-22T04:31:47.336Z,19.60
2018-06-22T04:34:16.314Z,28.00
2018-06-22T04:36:44.755Z,27.87
2018-06-22T04:39:13.650Z,28.90
2018-06-22T04:41:42.233Z,22.83
2018-06-22T04:44:10.550Z,25.03
2018-06-22T04:46:38.844Z,27.70
2018-06-22T04:49:07.170Z,28.33
2018-06-22T04:51:35.450Z,27.33
2018-06-22T04:54:03.969Z,27.60
2018-06-22T04:56:32.525Z,23.83
2018-06-22T04:59:00.816Z,28.73
2018-06-22T05:01:29.601Z,25.50
2018-06-22T05:03:57.875Z,22.63
2018-06-22T05:06:26.204Z,26.77
2018-06-22T05:08:54.706Z,22.13
2018-06-22T05:11:23.369Z,24.53
2018-06-22T05:13:51.683Z,19.10
2018-06-22T05:16:20.000Z,18.00
2018-06-22T05:18:48.625Z,18.70
2018-06-22T05:21:16.911Z,21.20
2018-06-22T05:23:45.226Z,17.77
2018-06-22T05:26:13.506Z,21.93
2018-06-22T05:28:41.843Z,15.47
2018-06-22T05:31:10.114Z,13.80
2018-06-22T05:33:38.211Z,12.90
2018-06-22T05:36:06.517Z,19.27
2018-06-22T05:38:34.842Z,20.80
2018-06-22T05:41:03.164Z,16.27
2018-06-22T05:43:31.461Z,19.23
2018-06-22T05:45:59.796Z,18.23
2018-06-22T05:48:28.102Z,19.73
2018-06-22T05:50:56.492Z,19.40
2018-06-22T05:53:24.775Z,14.87
2018-06-22T05:55:53.096Z,11.90
2018-06-22T05:58:21.422Z,13.43
2018-06-22T06:00:49.500Z,11.90
2018-06-22T06:03:17.826Z,15.30
2018-06-22T06:05:46.314Z,14.13
2018-06-22T06:08:14.934Z,14.23
2018-06-22T06:10:43.213Z,19.03
2018-06-22T06:13:11.545Z,13.60
2018-06-22T06:15:39.939Z,13.97
2018-06-22T06:18:08.232Z,18.03
2018-06-22T06:20:36.596Z,12.60
2018-06-22T06:23:04.971Z,18.10
2018-06-22T06:25:33.274Z,18.07
2018-06-22T06:28:01.605Z,17.43
2018-06-22T06:30:29.885Z,17.40
2018-06-22T06:32:58.217Z,15.13
2018-06-22T06:35:26.532Z,16.03
2018-06-22T06:37:54.859Z,13.73
2018-06-22T06:40:23.160Z,18.37
2018-06-22T06:42:51.495Z,16.83
2018-06-22T06:45:19.786Z,12.07
2018-06-22T06:47:48.108Z,17.97
2018-06-22T06:50:16.525Z,15.67
2018-06-22T06:52:44.843Z,14.17
2018-06-22T06:55:13.165Z,12.53
2018-06-22T06:57:41.472Z,13.33
2018-06-22T07:00:10.076Z,11.67
2018-06-22T07:02:38.543Z,11.40
2018-06-22T07:05:06.919Z,15.10
2018-06-22T07:07:35.242Z,17.13
2018-06-22T07:10:03.683Z,11.50
2018-06-22T07:12:32.008Z,12.50
2018-06-22T07:15:00.340Z,13.10
2018-06-22T07:17:28.660Z,13.07
2018-06-22T07:19:56.951Z,22.70
2018-06-22T07:22:25.270Z,13.97
2018-06-22T07:24:53.340Z,14.00
2018-06-22T07:27:21.511Z,14.80
2018-06-22T07:29:49.851Z,10.43
2018-06-22T07:32:18.169Z,14.87
2018-06-22T07:34:46.223Z,13.27
2018-06-22T07:37:14.518Z,10.50
2018-06-22T07:39:42.566Z,17.53
2018-06-22T07:42:10.850Z,9.60
2018-06-22T07:44:38.898Z,18.80
2018-06-22T07:47:07.241Z,19.53
2018-06-22T07:49:35.590Z,10.43
2018-06-22T07:52:03.630Z,14.77
2018-06-22T07:54:31.976Z,10.47
2018-06-22T07:57:00.343Z,15.53
2018-06-22T07:59:28.896Z,8.93
2018-06-22T08:01:56.979Z,14.90
2018-06-22T08:04:25.397Z,13.77
2018-06-22T08:06:53.710Z,16.77
2018-06-22T08:09:22.011Z,9.07
2018-06-22T08:11:50.335Z,13.07
2018-06-22T08:14:18.634Z,12.67
2018-06-22T08:16:46.702Z,12.80
2018-06-22T08:19:15.002Z,14.07
2018-06-22T08:21:43.040Z,14.77
2018-06-22T08:24:11.369Z,18.23
2018-06-22T08:26:39.694Z,13.33
2018-06-22T08:29:07.979Z,16.67
2018-06-22T08:31:36.301Z,18.23
2018-06-22T08:34:04.606Z,13.23
2018-06-22T08:36:33.288Z,10.37
2018-06-22T08:39:01.628Z,12.23
2018-06-22T08:41:29.955Z,8.53
2018-06-22T08:43:58.285Z,12.80
2018-06-22T08:46:26.613Z,12.90
2018-06-22T08:48:54.953Z,13.37
2018-06-22T08:51:23.284Z,10.80
2018-06-22T08:53:51.589Z,11.83
2018-06-22T08:56:19.922Z,6.67
2018-06-22T08:58:48.220Z,9.30
2018-06-22T09:01:16.524Z,12.70
2018-06-22T09:03:44.865Z,15.63
2018-06-22T09:06:13.182Z,11.70
2018-06-22T09:08:41.520Z,20.40
2018-06-22T09:11:09.811Z,10.93
2018-06-22T09:13:38.295Z,12.23
2018-06-22T09:16:06.753Z,13.70
2018-06-22T09:18:35.216Z,16.60
2018-06-22T09:21:03.725Z,12.10
2018-06-22T09:23:32.145Z,13.77
2018-06-22T09:26:00.802Z,17.17
2018-06-22T09:28:29.247Z,20.73
2018-06-22T09:30:57.801Z,12.73
2018-06-22T09:33:26.296Z,10.73
2018-06-22T09:35:54.840Z,12.13
2018-06-22T09:38:23.264Z,12.43
2018-06-22T09:40:52.143Z,16.13
2018-06-22T09:43:20.566Z,14.67
2018-06-22T09:45:48.998Z,13.37
2018-06-22T09:48:17.416Z,10.33
2018-06-22T09:50:45.901Z,11.13
2018-06-22T09:53:14.352Z,10.07
2018-06-22T09:55:42.846Z,11.33
2018-06-22T09:58:11.049Z,12.10
2018-06-22T10:00:41.947Z,9.63
2018-06-22T10:03:10.543Z,8.83
2018-06-22T10:05:39.008Z,13.83
2018-06-22T10:08:07.880Z,13.20
2018-06-22T10:10:36.360Z,6.37
2018-06-22T10:13:04.989Z,8.70
2018-06-22T10:15:33.773Z,6.93
2018-06-22T10:18:02.522Z,7.73
2018-06-22T10:20:31.465Z,8.10
2018-06-22T10:22:59.920Z,11.07
2018-06-22T10:25:28.404Z,10.83
2018-06-22T10:27:56.883Z,11.17
2018-06-22T10:30:26.019Z,9.80
2018-06-22T10:32:54.542Z,13.73
2018-06-22T10:35:23.043Z,11.53
2018-06-22T10:37:51.261Z,9.93
2018-06-22T10:40:21.799Z,13.17
2018-06-22T10:42:50.250Z,12.50
2018-06-22T10:45:18.671Z,12.03
2018-06-22T10:47:47.221Z,11.00
2018-06-22T10:50:15.700Z,9.90
2018-06-22T10:52:44.334Z,12.53
2018-06-22T10:55:12.521Z,12.60
2018-06-22T10:57:41.113Z,10.83
2018-06-22T11:00:09.572Z,11.97
2018-06-22T11:02:38.008Z,13.63
2018-06-22T11:05:06.419Z,7.80
2018-06-22T11:07:34.829Z,11.37
2018-06-22T11:10:03.550Z,11.43
2018-06-22T11:12:32.100Z,8.07
2018-06-22T11:15:00.220Z,12.40
2018-06-22T11:17:28.728Z,10.60
2018-06-22T11:19:57.174Z,10.00
2018-06-22T11:22:25.630Z,5.77
2018-06-22T11:24:54.129Z,10.37
2018-06-22T11:27:22.577Z,4.43
2018-06-22T11:29:50.986Z,5.83
2018-06-22T11:32:19.530Z,3.80
2018-06-22T11:34:48.467Z,4.63
2018-06-22T11:37:17.076Z,4.37
2018-06-22T11:39:45.814Z,7.63
2018-06-22T11:42:14.409Z,5.57
2018-06-22T11:44:42.904Z,12.03
2018-06-22T11:47:11.347Z,9.07
2018-06-22T11:49:39.738Z,10.40
2018-06-22T11:52:08.129Z,7.63
2018-06-22T11:54:36.621Z,10.73
2018-06-22T11:57:05.134Z,6.27
2018-06-22T11:59:33.533Z,8.23
2018-06-22T12:02:02.266Z,13.70
2018-06-22T12:04:30.950Z,9.53
2018-06-22T12:06:59.373Z,9.30
2018-06-22T12:09:27.825Z,10.03
2018-06-22T12:11:56.338Z,8.80
2018-06-22T12:14:25.265Z,11.27
2018-06-22T12:16:53.665Z,9.40
2018-06-22T12:19:22.095Z,10.93
2018-06-22T12:21:50.523Z,9.43
2018-06-22T12:24:19.017Z,10.67
2018-06-22T12:26:47.505Z,9.03
2018-06-22T12:29:15.954Z,12.80
2018-06-22T12:31:44.445Z,13.33
2018-06-22T12:34:12.934Z,7.07
2018-06-22T12:36:41.703Z,15.30
2018-06-22T12:39:12.249Z,11.23
2018-06-22T12:41:41.022Z,10.43
2018-06-22T12:44:09.455Z,9.67
2018-06-22T12:46:37.858Z,11.20
2018-06-22T12:49:06.424Z,15.47
2018-06-22T12:51:35.283Z,14.40
2018-06-22T12:54:03.706Z,11.77
2018-06-22T12:56:32.121Z,14.30
2018-06-22T12:59:00.603Z,14.20
2018-06-22T13:01:29.079Z,14.57
2018-06-22T13:03:57.527Z,9.67
2018-06-22T13:06:26.205Z,11.40
2018-06-22T13:08:54.670Z,7.63
2018-06-22T13:11:23.067Z,4.03
2018-06-22T13:13:51.463Z,7.33
2018-06-22T13:16:19.948Z,8.57
2018-06-22T13:18:48.355Z,7.20
2018-06-22T13:21:16.917Z,7.20
2018-06-22T13:23:45.419Z,5.33
2018-06-22T13:26:14.020Z,6.87
2018-06-22T13:28:42.465Z,6.17
2018-06-22T13:31:11.225Z,6.30
2018-06-22T13:33:39.642Z,4.77
2018-06-22T13:36:07.853Z,5.37
2018-06-22T13:38:36.369Z,6.87
2018-06-22T13:41:04.844Z,9.03
2018-06-22T13:43:33.359Z,5.97
2018-06-22T13:46:01.883Z,5.57
2018-06-22T13:48:30.348Z,6.57
2018-06-22T13:50:58.512Z,3.97
2018-06-22T13:53:26.697Z,6.43
2018-06-22T13:55:55.183Z,6.40
2018-06-22T13:58:23.606Z,6.47
2018-06-22T14:00:52.539Z,4.73
2018-06-22T14:03:21.029Z,5.40
2018-06-22T14:05:54.863Z,5.53
2018-06-22T14:08:23.528Z,7.27
2018-06-22T14:10:52.244Z,5.97
2018-06-22T14:13:21.160Z,5.87
2018-06-22T14:15:49.566Z,8.10
2018-06-22T14:18:18.144Z,10.17
2018-06-22T14:20:46.326Z,10.00
2018-06-22T14:23:14.675Z,11.20
2018-06-22T14:25:43.155Z,12.80
2018-06-22T14:28:11.662Z,7.67
2018-06-22T14:30:40.107Z,11.17
2018-06-22T14:33:08.645Z,12.57
2018-06-22T14:35:37.027Z,11.23
2018-06-22T14:38:05.677Z,9.87
2018-06-22T14:40:34.074Z,10.73
2018-06-22T14:43:02.520Z,8.50
2018-06-22T14:45:30.948Z,10.10
2018-06-22T14:47:59.373Z,11.53
2018-06-22T14:50:27.776Z,13.03
2018-06-22T14:52:56.221Z,12.17
2018-06-22T14:55:30.309Z,8.40
2018-06-22T14:58:04.561Z,10.90
2018-06-22T15:00:38.413Z,9.77
2018-06-22T15:03:12.402Z,12.03
2018-06-22T15:05:46.358Z,8.17
2018-06-22T15:08:19.153Z,7.60
2018-06-22T15:10:47.746Z,9.73
2018-06-22T15:13:16.223Z,12.73
2018-06-22T15:15:44.751Z,12.93
2018-06-22T15:18:13.327Z,9.33
2018-06-22T15:20:41.864Z,12.53
2018-06-22T15:23:10.371Z,8.40
2018-06-22T15:25:38.805Z,7.80
2018-06-22T15:28:07.243Z,8.17
2018-06-22T15:30:35.732Z,7.30
2018-06-22T15:33:04.363Z,6.63
2018-06-22T15:35:38.222Z,9.40
2018-06-22T15:38:11.980Z,5.90
2018-06-22T15:40:45.916Z,4.87
2018-06-22T15:43:20.072Z,5.97
2018-06-22T15:45:53.925Z,3.97
2018-06-22T15:48:27.900Z,6.23
2018-06-22T15:51:01.863Z,6.80
2018-06-22T15:53:35.670Z,7.00
2018-06-22T15:56:08.052Z,6.47
2018-06-22T15:58:36.753Z,7.63
2018-06-22T16:01:05.617Z,4.73
2018-06-22T16:04:41.641Z,5.53
2018-06-22T16:07:10.243Z,6.50
2018-06-22T16:09:43.916Z,6.10
2018-06-22T16:12:17.722Z,7.27
2018-06-22T16:14:51.774Z,4.70
2018-06-22T16:17:26.755Z,7.23
2018-06-22T16:20:00.848Z,6.93
2018-06-22T16:22:34.702Z,6.73
2018-06-22T16:25:08.999Z,9.97
2018-06-22T16:27:40.265Z,9.03
2018-06-22T16:30:09.502Z,8.57
2018-06-22T16:32:37.978Z,7.87
2018-06-22T16:35:06.402Z,8.77
2018-06-22T16:37:34.825Z,7.90
2018-06-22T16:40:03.349Z,5.23
2018-06-22T16:42:31.852Z,7.90
2018-06-22T16:45:00.513Z,10.03
2018-06-22T16:47:29.052Z,11.77
2018-06-22T16:49:57.916Z,8.87
2018-06-22T16:52:26.409Z,8.70
2018-06-22T16:54:54.779Z,7.43
2018-06-22T16:57:23.284Z,6.97
2018-06-22T16:59:51.717Z,7.40
2018-06-22T17:02:20.231Z,6.93
2018-06-22T17:04:48.456Z,8.03
2018-06-22T17:07:22.242Z,8.50
2018-06-22T17:09:56.566Z,10.27
2018-06-22T17:12:30.389Z,9.07
2018-06-22T17:15:04.404Z,8.07
2018-06-22T17:17:39.927Z,8.37
2018-06-22T17:20:08.869Z,8.90
2018-06-22T17:22:37.881Z,9.70
2018-06-22T17:25:06.428Z,11.73
2018-06-22T17:27:34.953Z,10.33
2018-06-22T17:30:03.476Z,7.67
2018-06-22T17:32:31.886Z,6.93
2018-06-22T17:35:00.493Z,10.27
2018-06-22T17:37:29.343Z,10.73
2018-06-22T17:39:57.831Z,8.33
2018-06-22T17:42:26.518Z,12.60
2018-06-22T17:44:54.946Z,11.53
2018-06-22T17:47:23.474Z,13.00
2018-06-22T17:49:51.999Z,11.37
2018-06-22T17:52:20.605Z,10.13
2018-06-22T17:54:49.524Z,11.07
2018-06-22T17:57:18.094Z,10.33
2018-06-22T17:59:52.298Z,9.67
2018-06-22T18:02:26.369Z,8.70
2018-06-22T18:05:00.269Z,8.60
2018-06-22T18:07:34.262Z,11.37
2018-06-22T18:10:08.130Z,9.33
2018-06-22T18:12:42.142Z,13.70
2018-06-22T18:15:10.489Z,11.07
2018-06-22T18:17:39.237Z,11.33
2018-06-22T18:20:07.824Z,14.90
2018-06-22T18:22:36.248Z,10.80
2018-06-22T18:25:04.405Z,11.10
2018-06-22T18:27:37.506Z,15.60
2018-06-22T18:30:07.846Z,12.13
2018-06-22T18:32:36.370Z,15.37
2018-06-22T18:35:05.214Z,11.67
2018-06-22T18:37:33.773Z,22.77
2018-06-22T18:40:02.643Z,15.77
2018-06-22T18:42:31.106Z,14.57
2018-06-22T18:44:59.735Z,20.03
2018-06-22T18:47:28.221Z,12.43
2018-06-22T18:49:56.696Z,16.83
2018-06-22T18:52:30.511Z,16.63
2018-06-22T18:55:04.573Z,15.60
2018-06-22T18:58:37.240Z,17.63
2018-06-22T19:01:11.234Z,16.70
2018-06-22T19:03:46.843Z,19.13
2018-06-22T19:06:15.421Z,14.53
2018-06-22T19:08:43.930Z,14.53
2018-06-22T19:11:12.483Z,17.73
2018-06-22T19:13:41.424Z,16.40
2018-06-22T19:16:10.011Z,16.77
2018-06-22T19:18:38.654Z,16.73
2018-06-22T19:21:07.812Z,17.00
2018-06-22T19:23:37.685Z,13.97
2018-06-22T19:26:06.416Z,17.73
2018-06-22T19:28:34.925Z,15.50
2018-06-22T19:31:03.386Z,14.20
2018-06-22T19:33:31.987Z,12.10
2018-06-22T19:36:00.429Z,13.90
2018-06-22T19:38:29.031Z,17.23
2018-06-22T19:40:57.532Z,15.77
2018-06-22T19:43:31.339Z,17.50
2018-06-22T19:46:05.119Z,11.03
2018-06-22T19:48:39.010Z,19.37
2018-06-22T19:51:12.908Z,14.23
2018-06-22T19:53:49.975Z,13.90
2018-06-22T19:56:18.651Z,14.83
2018-06-22T19:58:47.161Z,13.60
2018-06-22T20:01:15.720Z,13.40
2018-06-22T20:03:44.387Z,17.50
2018-06-22T20:06:12.935Z,15.97
2018-06-22T20:08:41.672Z,11.50
2018-06-22T20:11:10.839Z,13.93
2018-06-22T20:13:40.685Z,15.30
2018-06-22T20:16:09.260Z,12.43
2018-06-22T20:18:37.666Z,12.27
2018-06-22T20:21:07.116Z,14.80
2018-06-22T20:23:35.476Z,14.57
2018-06-22T20:26:04.077Z,17.00
2018-06-22T20:28:32.593Z,16.77
2018-06-22T20:31:01.045Z,16.10
2018-06-22T20:33:29.488Z,13.90
2018-06-22T20:36:03.316Z,18.73
2018-06-22T20:38:37.304Z,19.50
2018-06-22T20:41:18.005Z,16.00
2018-06-22T20:43:51.792Z,18.03
2018-06-22T20:46:25.340Z,18.77
2018-06-22T20:48:59.184Z,22.93
2018-06-22T20:51:31.891Z,17.50
2018-06-22T20:54:00.349Z,13.63
2018-06-22T20:56:28.793Z,18.83
2018-06-22T20:58:57.280Z,15.87
2018-06-22T21:01:26.198Z,16.90
2018-06-22T21:03:54.666Z,19.57
2018-06-22T21:06:23.165Z,13.13
2018-06-22T21:08:51.736Z,17.93
2018-06-22T21:11:20.200Z,16.93
2018-06-22T21:13:48.693Z,22.00
2018-06-22T21:16:16.857Z,18.90
2018-06-22T21:18:45.348Z,20.57
2018-06-22T21:22:20.148Z,19.73
2018-06-22T21:24:48.694Z,21.80
2018-06-22T21:27:22.460Z,26.43
2018-06-22T21:29:56.272Z,18.37
2018-06-22T21:32:30.070Z,18.57
2018-06-22T21:35:05.038Z,13.87
2018-06-22T21:37:38.796Z,17.77
2018-06-22T21:40:07.287Z,22.10
2018-06-22T21:42:35.785Z,20.43
2018-06-22T21:45:04.061Z,18.90
2018-06-22T21:47:32.575Z,21.43
2018-06-22T21:50:01.025Z,28.07
2018-06-22T21:52:29.518Z,22.60
2018-06-22T21:54:58.198Z,24.43
2018-06-22T21:57:26.663Z,22.60
2018-06-22T21:59:55.155Z,23.40
2018-06-22T22:02:23.576Z,20.47
2018-06-22T22:04:52.106Z,25.77
2018-06-22T22:07:20.631Z,23.77
2018-06-22T22:09:49.049Z,24.27
2018-06-22T22:12:17.451Z,24.40
2018-06-22T22:14:45.955Z,27.17
2018-06-22T22:17:14.422Z,25.33
2018-06-22T22:19:42.974Z,28.77
2018-06-22T22:22:11.484Z,19.30
2018-06-22T22:24:39.926Z,24.83
2018-06-22T22:27:08.581Z,25.57
2018-06-22T22:29:37.030Z,34.97
2018-06-22T22:32:05.567Z,27.57
2018-06-22T22:34:33.971Z,27.57
2018-06-22T22:37:02.128Z,28.80
2018-06-22T22:39:30.586Z,23.83
2018-06-22T22:41:59.099Z,29.90
2018-06-22T22:44:27.587Z,27.33
2018-06-22T22:46:56.072Z,19.10
2018-06-22T22:49:24.568Z,21.37
2018-06-22T22:51:53.012Z,24.80
2018-06-22T22:54:21.201Z,22.97
2018-06-22T22:56:49.666Z,24.97
2018-06-22T22:59:18.127Z,30.20
2018-06-22T23:01:46.571Z,22.03
2018-06-22T23:04:15.028Z,24.87
2018-06-22T23:06:44.191Z,23.17
2018-06-22T23:09:12.729Z,19.93
2018-06-22T23:11:41.266Z,25.23
2018-06-22T23:14:09.771Z,26.70
2018-06-22T23:16:38.219Z,24.93
2018-06-22T23:19:06.606Z,18.70
2018-06-22T23:21:35.593Z,23.20
2018-06-22T23:24:04.015Z,28.77
2018-06-22T23:26:32.455Z,33.83
2018-06-22T23:29:01.515Z,24.40
2018-06-22T23:31:30.024Z,17.67
2018-06-22T23:33:58.425Z,19.27
2018-06-22T23:36:27.087Z,31.40
2018-06-22T23:38:55.564Z,28.13
2018-06-22T23:41:24.056Z,25.10
2018-06-22T23:43:52.376Z,19.57
2018-06-22T23:46:21.019Z,20.90
2018-06-22T23:48:49.790Z,25.07
2018-06-22T23:51:18.184Z,21.67
2018-06-22T23:53:46.665Z,28.67
2018-06-22T23:56:15.134Z,26.80
2018-06-22T23:58:43.717Z,25.23
